sensor_id;sensor_type;location;lat;lon;timestamp;P1;durP1;ratioP1;P2;durP2;ratioP2
6013;SDS011;3035;49.928;8.410;2024-03-08T00:00:46;33.03;;;11.10;;
6013;SDS011;3035;49.928;8.410;2024-03-08T00:03:15;17.93;;;10.53;;
6013;SDS011;3035;49.928;8.410;2024-03-08T00:05:43;21.80;;;11.07;;
6013;SDS011;3035;49.928;8.410;2024-03-08T00:08:11;17.17;;;9.87;;
6013;SDS011;3035;49.928;8.410;2024-03-08T00:10:40;18.70;;;11.00;;
6013;SDS011;3035;49.928;8.410;2024-03-08T00:13:08;19.03;;;10.67;;
6013;SDS011;3035;49.928;8.410;2024-03-08T00:15:35;23.40;;;10.50;;
6013;SDS011;3035;49.928;8.410;2024-03-08T00:18:03;21.50;;;11.63;;
6013;SDS011;3035;49.928;8.410;2024-03-08T00:20:30;15.47;;;10.50;;
6013;SDS011;3035;49.928;8.410;2024-03-08T00:22:58;19.07;;;10.80;;
6013;SDS011;3035;49.928;8.410;2024-03-08T00:25:25;16.20;;;10.30;;
6013;SDS011;3035;49.928;8.410;2024-03-08T00:27:53;18.33;;;10.80;;
6013;SDS011;3035;49.928;8.410;2024-03-08T00:30:20;22.93;;;11.07;;
6013;SDS011;3035;49.928;8.410;2024-03-08T00:32:47;20.97;;;11.60;;
6013;SDS011;3035;49.928;8.410;2024-03-08T00:35:15;20.40;;;10.93;;
6013;SDS011;3035;49.928;8.410;2024-03-08T00:37:42;20.77;;;10.47;;
6013;SDS011;3035;49.928;8.410;2024-03-08T00:40:10;20.23;;;10.73;;
6013;SDS011;3035;49.928;8.410;2024-03-08T00:42:38;22.33;;;11.70;;
6013;SDS011;3035;49.928;8.410;2024-03-08T00:45:05;18.03;;;10.50;;
6013;SDS011;3035;49.928;8.410;2024-03-08T00:47:33;20.20;;;11.40;;
6013;SDS011;3035;49.928;8.410;2024-03-08T00:50:00;15.60;;;9.20;;
6013;SDS011;3035;49.928;8.410;2024-03-08T00:52:27;21.57;;;12.10;;
6013;SDS011;3035;49.928;8.410;2024-03-08T00:54:55;17.67;;;11.03;;
6013;SDS011;3035;49.928;8.410;2024-03-08T00:57:22;16.20;;;10.73;;
6013;SDS011;3035;49.928;8.410;2024-03-08T00:59:50;36.10;;;11.30;;
6013;SDS011;3035;49.928;8.410;2024-03-08T01:02:17;24.93;;;10.87;;
6013;SDS011;3035;49.928;8.410;2024-03-08T01:04:45;19.37;;;10.80;;
6013;SDS011;3035;49.928;8.410;2024-03-08T01:07:12;24.17;;;12.73;;
6013;SDS011;3035;49.928;8.410;2024-03-08T01:09:40;23.93;;;11.60;;
6013;SDS011;3035;49.928;8.410;2024-03-08T01:12:07;17.87;;;10.93;;
6013;SDS011;3035;49.928;8.410;2024-03-08T01:14:34;23.17;;;11.47;;
6013;SDS011;3035;49.928;8.410;2024-03-08T01:17:02;17.30;;;10.73;;
6013;SDS011;3035;49.928;8.410;2024-03-08T01:19:29;17.10;;;10.40;;
6013;SDS011;3035;49.928;8.410;2024-03-08T01:21:57;27.33;;;12.73;;
6013;SDS011;3035;49.928;8.410;2024-03-08T01:24:24;26.80;;;12.40;;
6013;SDS011;3035;49.928;8.410;2024-03-08T01:26:52;23.27;;;12.53;;
6013;SDS011;3035;49.928;8.410;2024-03-08T01:29:20;20.80;;;11.57;;
6013;SDS011;3035;49.928;8.410;2024-03-08T01:31:47;23.20;;;12.60;;
6013;SDS011;3035;49.928;8.410;2024-03-08T01:34:15;22.07;;;11.17;;
6013;SDS011;3035;49.928;8.410;2024-03-08T01:36:43;19.20;;;11.67;;
6013;SDS011;3035;49.928;8.410;2024-03-08T01:39:10;18.23;;;11.10;;
6013;SDS011;3035;49.928;8.410;2024-03-08T01:41:38;20.80;;;11.93;;
6013;SDS011;3035;49.928;8.410;2024-03-08T01:44:05;23.80;;;12.33;;
6013;SDS011;3035;49.928;8.410;2024-03-08T01:46:33;22.60;;;12.57;;
6013;SDS011;3035;49.928;8.410;2024-03-08T01:49:00;21.97;;;11.17;;
6013;SDS011;3035;49.928;8.410;2024-03-08T01:51:28;20.50;;;11.23;;
6013;SDS011;3035;49.928;8.410;2024-03-08T01:53:55;18.77;;;12.13;;
6013;SDS011;3035;49.928;8.410;2024-03-08T01:56:22;19.23;;;11.67;;
6013;SDS011;3035;49.928;8.410;2024-03-08T01:58:50;20.13;;;10.87;;
6013;SDS011;3035;49.928;8.410;2024-03-08T02:01:17;24.40;;;11.80;;
6013;SDS011;3035;49.928;8.410;2024-03-08T02:03:45;21.00;;;11.17;;
6013;SDS011;3035;49.928;8.410;2024-03-08T02:06:12;20.80;;;11.70;;
6013;SDS011;3035;49.928;8.410;2024-03-08T02:08:42;22.60;;;12.40;;
6013;SDS011;3035;49.928;8.410;2024-03-08T02:11:12;19.20;;;11.70;;
6013;SDS011;3035;49.928;8.410;2024-03-08T02:13:39;19.53;;;11.63;;
6013;SDS011;3035;49.928;8.410;2024-03-08T02:16:07;20.73;;;12.60;;
6013;SDS011;3035;49.928;8.410;2024-03-08T02:18:34;30.40;;;12.40;;
6013;SDS011;3035;49.928;8.410;2024-03-08T02:21:02;22.63;;;11.60;;
6013;SDS011;3035;49.928;8.410;2024-03-08T02:23:29;22.80;;;11.10;;
6013;SDS011;3035;49.928;8.410;2024-03-08T02:25:57;23.87;;;12.10;;
6013;SDS011;3035;49.928;8.410;2024-03-08T02:28:24;35.67;;;11.87;;
6013;SDS011;3035;49.928;8.410;2024-03-08T02:30:52;21.97;;;11.57;;
6013;SDS011;3035;49.928;8.410;2024-03-08T02:33:22;23.13;;;11.80;;
6013;SDS011;3035;49.928;8.410;2024-03-08T02:35:49;19.40;;;10.93;;
6013;SDS011;3035;49.928;8.410;2024-03-08T02:38:18;21.60;;;12.10;;
6013;SDS011;3035;49.928;8.410;2024-03-08T02:40:46;17.77;;;11.30;;
6013;SDS011;3035;49.928;8.410;2024-03-08T02:43:13;24.63;;;12.00;;
6013;SDS011;3035;49.928;8.410;2024-03-08T02:45:41;19.40;;;10.17;;
6013;SDS011;3035;49.928;8.410;2024-03-08T02:48:09;26.13;;;11.07;;
6013;SDS011;3035;49.928;8.410;2024-03-08T02:50:36;18.70;;;10.53;;
6013;SDS011;3035;49.928;8.410;2024-03-08T02:53:04;20.80;;;11.40;;
6013;SDS011;3035;49.928;8.410;2024-03-08T02:55:33;20.87;;;11.40;;
6013;SDS011;3035;49.928;8.410;2024-03-08T02:58:00;21.40;;;12.20;;
6013;SDS011;3035;49.928;8.410;2024-03-08T03:00:29;25.40;;;12.37;;
6013;SDS011;3035;49.928;8.410;2024-03-08T03:02:57;24.47;;;11.20;;
6013;SDS011;3035;49.928;8.410;2024-03-08T03:05:25;20.97;;;11.63;;
6013;SDS011;3035;49.928;8.410;2024-03-08T03:07:52;21.30;;;12.17;;
6013;SDS011;3035;49.928;8.410;2024-03-08T03:10:21;20.67;;;11.90;;
6013;SDS011;3035;49.928;8.410;2024-03-08T03:12:50;26.40;;;12.70;;
6013;SDS011;3035;49.928;8.410;2024-03-08T03:15:18;20.63;;;11.07;;
6013;SDS011;3035;49.928;8.410;2024-03-08T03:17:46;23.03;;;12.67;;
6013;SDS011;3035;49.928;8.410;2024-03-08T03:20:14;22.97;;;12.57;;
6013;SDS011;3035;49.928;8.410;2024-03-08T03:22:41;21.53;;;11.47;;
6013;SDS011;3035;49.928;8.410;2024-03-08T03:25:10;20.40;;;10.90;;
6013;SDS011;3035;49.928;8.410;2024-03-08T03:27:38;21.03;;;12.53;;
6013;SDS011;3035;49.928;8.410;2024-03-08T03:30:07;25.73;;;12.20;;
6013;SDS011;3035;49.928;8.410;2024-03-08T03:32:50;20.83;;;11.90;;
6013;SDS011;3035;49.928;8.410;2024-03-08T03:35:18;21.63;;;11.20;;
6013;SDS011;3035;49.928;8.410;2024-03-08T03:37:46;22.07;;;12.40;;
6013;SDS011;3035;49.928;8.410;2024-03-08T03:40:28;22.73;;;11.67;;
6013;SDS011;3035;49.928;8.410;2024-03-08T03:42:55;26.17;;;12.00;;
6013;SDS011;3035;49.928;8.410;2024-03-08T03:45:23;29.30;;;13.00;;
6013;SDS011;3035;49.928;8.410;2024-03-08T03:47:50;32.63;;;13.83;;
6013;SDS011;3035;49.928;8.410;2024-03-08T03:50:18;28.90;;;13.23;;
6013;SDS011;3035;49.928;8.410;2024-03-08T03:52:46;19.57;;;11.30;;
6013;SDS011;3035;49.928;8.410;2024-03-08T03:55:13;23.20;;;12.93;;
6013;SDS011;3035;49.928;8.410;2024-03-08T03:57:40;24.47;;;12.33;;
6013;SDS011;3035;49.928;8.410;2024-03-08T04:00:08;24.30;;;11.90;;
6013;SDS011;3035;49.928;8.410;2024-03-08T04:02:37;18.70;;;11.20;;
6013;SDS011;3035;49.928;8.410;2024-03-08T04:05:06;20.37;;;11.47;;
6013;SDS011;3035;49.928;8.410;2024-03-08T04:07:34;21.33;;;11.50;;
6013;SDS011;3035;49.928;8.410;2024-03-08T04:10:02;24.50;;;11.90;;
6013;SDS011;3035;49.928;8.410;2024-03-08T04:12:28;22.73;;;11.47;;
6013;SDS011;3035;49.928;8.410;2024-03-08T04:14:56;20.87;;;11.83;;
6013;SDS011;3035;49.928;8.410;2024-03-08T04:17:23;30.90;;;12.37;;
6013;SDS011;3035;49.928;8.410;2024-03-08T04:19:51;28.13;;;13.90;;
6013;SDS011;3035;49.928;8.410;2024-03-08T04:22:18;34.10;;;12.13;;
6013;SDS011;3035;49.928;8.410;2024-03-08T04:24:47;25.07;;;13.57;;
6013;SDS011;3035;49.928;8.410;2024-03-08T04:27:14;23.50;;;12.43;;
6013;SDS011;3035;49.928;8.410;2024-03-08T04:29:42;22.27;;;11.53;;
6013;SDS011;3035;49.928;8.410;2024-03-08T04:32:10;23.77;;;12.00;;
6013;SDS011;3035;49.928;8.410;2024-03-08T04:34:39;24.00;;;12.30;;
6013;SDS011;3035;49.928;8.410;2024-03-08T04:37:07;20.70;;;12.33;;
6013;SDS011;3035;49.928;8.410;2024-03-08T04:39:35;29.50;;;14.30;;
6013;SDS011;3035;49.928;8.410;2024-03-08T04:42:04;28.40;;;13.90;;
6013;SDS011;3035;49.928;8.410;2024-03-08T04:44:36;24.60;;;11.97;;
6013;SDS011;3035;49.928;8.410;2024-03-08T04:47:03;21.43;;;12.77;;
6013;SDS011;3035;49.928;8.410;2024-03-08T04:49:32;23.73;;;12.77;;
6013;SDS011;3035;49.928;8.410;2024-03-08T04:52:01;22.73;;;12.60;;
6013;SDS011;3035;49.928;8.410;2024-03-08T04:54:30;25.50;;;12.17;;
6013;SDS011;3035;49.928;8.410;2024-03-08T04:56:59;22.40;;;12.37;;
6013;SDS011;3035;49.928;8.410;2024-03-08T04:59:27;25.80;;;12.87;;
6013;SDS011;3035;49.928;8.410;2024-03-08T05:01:56;24.80;;;12.03;;
6013;SDS011;3035;49.928;8.410;2024-03-08T05:04:24;19.87;;;12.00;;
6013;SDS011;3035;49.928;8.410;2024-03-08T05:06:52;26.27;;;12.43;;
6013;SDS011;3035;49.928;8.410;2024-03-08T05:09:21;22.17;;;12.90;;
6013;SDS011;3035;49.928;8.410;2024-03-08T05:11:49;29.63;;;12.83;;
6013;SDS011;3035;49.928;8.410;2024-03-08T05:14:17;20.07;;;12.10;;
6013;SDS011;3035;49.928;8.410;2024-03-08T05:16:46;21.47;;;11.27;;
6013;SDS011;3035;49.928;8.410;2024-03-08T05:19:15;22.03;;;12.57;;
6013;SDS011;3035;49.928;8.410;2024-03-08T05:21:44;23.70;;;13.20;;
6013;SDS011;3035;49.928;8.410;2024-03-08T05:24:13;20.73;;;11.63;;
6013;SDS011;3035;49.928;8.410;2024-03-08T05:26:41;23.93;;;12.60;;
6013;SDS011;3035;49.928;8.410;2024-03-08T05:29:09;26.63;;;12.10;;
6013;SDS011;3035;49.928;8.410;2024-03-08T05:31:43;24.50;;;12.80;;
6013;SDS011;3035;49.928;8.410;2024-03-08T05:34:13;28.80;;;13.60;;
6013;SDS011;3035;49.928;8.410;2024-03-08T05:36:41;26.70;;;11.80;;
6013;SDS011;3035;49.928;8.410;2024-03-08T05:39:12;23.90;;;13.00;;
6013;SDS011;3035;49.928;8.410;2024-03-08T05:41:39;29.67;;;15.20;;
6013;SDS011;3035;49.928;8.410;2024-03-08T05:44:07;21.50;;;12.00;;
6013;SDS011;3035;49.928;8.410;2024-03-08T05:46:34;23.30;;;12.60;;
6013;SDS011;3035;49.928;8.410;2024-03-08T05:49:03;27.23;;;14.23;;
6013;SDS011;3035;49.928;8.410;2024-03-08T05:51:31;23.30;;;13.37;;
6013;SDS011;3035;49.928;8.410;2024-03-08T05:53:59;19.50;;;11.93;;
6013;SDS011;3035;49.928;8.410;2024-03-08T05:56:26;24.23;;;12.83;;
6013;SDS011;3035;49.928;8.410;2024-03-08T05:58:54;24.07;;;12.50;;
6013;SDS011;3035;49.928;8.410;2024-03-08T06:01:21;24.77;;;12.00;;
6013;SDS011;3035;49.928;8.410;2024-03-08T06:03:48;20.40;;;11.73;;
6013;SDS011;3035;49.928;8.410;2024-03-08T06:06:16;23.53;;;13.00;;
6013;SDS011;3035;49.928;8.410;2024-03-08T06:08:43;34.73;;;14.80;;
6013;SDS011;3035;49.928;8.410;2024-03-08T06:11:11;28.10;;;14.03;;
6013;SDS011;3035;49.928;8.410;2024-03-08T06:13:38;25.03;;;12.80;;
6013;SDS011;3035;49.928;8.410;2024-03-08T06:16:06;25.60;;;13.23;;
6013;SDS011;3035;49.928;8.410;2024-03-08T06:18:34;30.03;;;14.03;;
6013;SDS011;3035;49.928;8.410;2024-03-08T06:21:04;29.50;;;13.50;;
6013;SDS011;3035;49.928;8.410;2024-03-08T06:23:32;25.03;;;13.30;;
6013;SDS011;3035;49.928;8.410;2024-03-08T06:25:59;21.20;;;12.77;;
6013;SDS011;3035;49.928;8.410;2024-03-08T06:28:26;23.93;;;12.87;;
6013;SDS011;3035;49.928;8.410;2024-03-08T06:30:54;28.27;;;13.20;;
6013;SDS011;3035;49.928;8.410;2024-03-08T06:33:21;26.60;;;13.30;;
6013;SDS011;3035;49.928;8.410;2024-03-08T06:35:49;24.80;;;12.47;;
6013;SDS011;3035;49.928;8.410;2024-03-08T06:38:16;24.67;;;13.63;;
6013;SDS011;3035;49.928;8.410;2024-03-08T06:40:44;27.07;;;15.03;;
6013;SDS011;3035;49.928;8.410;2024-03-08T06:43:11;27.47;;;13.77;;
6013;SDS011;3035;49.928;8.410;2024-03-08T06:45:38;34.30;;;13.37;;
6013;SDS011;3035;49.928;8.410;2024-03-08T06:48:06;24.40;;;13.57;;
6013;SDS011;3035;49.928;8.410;2024-03-08T06:50:33;32.37;;;14.70;;
6013;SDS011;3035;49.928;8.410;2024-03-08T06:53:01;27.67;;;14.93;;
6013;SDS011;3035;49.928;8.410;2024-03-08T06:55:28;30.40;;;14.50;;
6013;SDS011;3035;49.928;8.410;2024-03-08T06:57:56;24.10;;;12.87;;
6013;SDS011;3035;49.928;8.410;2024-03-08T07:00:23;23.60;;;13.10;;
6013;SDS011;3035;49.928;8.410;2024-03-08T07:02:50;24.33;;;12.90;;
6013;SDS011;3035;49.928;8.410;2024-03-08T07:05:18;25.93;;;14.80;;
6013;SDS011;3035;49.928;8.410;2024-03-08T07:07:45;26.30;;;13.80;;
6013;SDS011;3035;49.928;8.410;2024-03-08T07:10:13;27.73;;;14.20;;
6013;SDS011;3035;49.928;8.410;2024-03-08T07:12:41;31.00;;;14.33;;
6013;SDS011;3035;49.928;8.410;2024-03-08T07:15:08;24.40;;;13.93;;
6013;SDS011;3035;49.928;8.410;2024-03-08T07:17:35;28.33;;;13.90;;
6013;SDS011;3035;49.928;8.410;2024-03-08T07:20:03;27.63;;;14.30;;
6013;SDS011;3035;49.928;8.410;2024-03-08T07:22:30;23.10;;;14.60;;
6013;SDS011;3035;49.928;8.410;2024-03-08T07:24:58;31.10;;;14.40;;
6013;SDS011;3035;49.928;8.410;2024-03-08T07:27:31;23.73;;;14.20;;
6013;SDS011;3035;49.928;8.410;2024-03-08T07:29:58;26.03;;;14.47;;
6013;SDS011;3035;49.928;8.410;2024-03-08T07:32:26;26.13;;;13.73;;
6013;SDS011;3035;49.928;8.410;2024-03-08T07:34:53;25.00;;;14.10;;
6013;SDS011;3035;49.928;8.410;2024-03-08T07:37:20;25.43;;;14.03;;
6013;SDS011;3035;49.928;8.410;2024-03-08T07:39:48;28.70;;;13.97;;
6013;SDS011;3035;49.928;8.410;2024-03-08T07:42:15;25.40;;;13.43;;
6013;SDS011;3035;49.928;8.410;2024-03-08T07:44:43;27.53;;;14.47;;
6013;SDS011;3035;49.928;8.410;2024-03-08T07:47:10;23.10;;;12.83;;
6013;SDS011;3035;49.928;8.410;2024-03-08T07:49:38;28.53;;;14.80;;
6013;SDS011;3035;49.928;8.410;2024-03-08T07:52:05;28.30;;;14.53;;
6013;SDS011;3035;49.928;8.410;2024-03-08T07:54:33;25.00;;;14.20;;
6013;SDS011;3035;49.928;8.410;2024-03-08T07:57:00;21.63;;;12.87;;
6013;SDS011;3035;49.928;8.410;2024-03-08T07:59:27;29.80;;;14.43;;
6013;SDS011;3035;49.928;8.410;2024-03-08T08:01:55;25.90;;;14.20;;
6013;SDS011;3035;49.928;8.410;2024-03-08T08:04:22;30.10;;;14.63;;
6013;SDS011;3035;49.928;8.410;2024-03-08T08:06:50;21.17;;;12.80;;
6013;SDS011;3035;49.928;8.410;2024-03-08T08:09:17;24.03;;;14.23;;
6013;SDS011;3035;49.928;8.410;2024-03-08T08:11:45;23.23;;;12.43;;
6013;SDS011;3035;49.928;8.410;2024-03-08T08:14:12;24.37;;;13.27;;
6013;SDS011;3035;49.928;8.410;2024-03-08T08:16:40;27.23;;;13.77;;
6013;SDS011;3035;49.928;8.410;2024-03-08T08:19:07;34.23;;;13.30;;
6013;SDS011;3035;49.928;8.410;2024-03-08T08:21:34;24.57;;;13.53;;
6013;SDS011;3035;49.928;8.410;2024-03-08T08:24:03;26.37;;;14.40;;
6013;SDS011;3035;49.928;8.410;2024-03-08T08:26:30;24.83;;;13.50;;
6013;SDS011;3035;49.928;8.410;2024-03-08T08:28:57;24.03;;;12.30;;
6013;SDS011;3035;49.928;8.410;2024-03-08T08:31:25;27.57;;;14.40;;
6013;SDS011;3035;49.928;8.410;2024-03-08T08:33:52;27.40;;;14.33;;
6013;SDS011;3035;49.928;8.410;2024-03-08T08:36:20;26.23;;;14.73;;
6013;SDS011;3035;49.928;8.410;2024-03-08T08:38:48;25.13;;;13.00;;
6013;SDS011;3035;49.928;8.410;2024-03-08T08:41:15;22.13;;;12.80;;
6013;SDS011;3035;49.928;8.410;2024-03-08T08:43:43;20.70;;;11.13;;
6013;SDS011;3035;49.928;8.410;2024-03-08T08:46:10;22.93;;;12.57;;
6013;SDS011;3035;49.928;8.410;2024-03-08T08:48:39;28.43;;;13.50;;
6013;SDS011;3035;49.928;8.410;2024-03-08T08:51:06;25.50;;;12.97;;
6013;SDS011;3035;49.928;8.410;2024-03-08T08:53:33;30.60;;;13.33;;
6013;SDS011;3035;49.928;8.410;2024-03-08T08:56:00;25.67;;;13.53;;
6013;SDS011;3035;49.928;8.410;2024-03-08T08:58:28;25.67;;;13.20;;
6013;SDS011;3035;49.928;8.410;2024-03-08T09:00:55;22.17;;;12.63;;
6013;SDS011;3035;49.928;8.410;2024-03-08T09:03:23;24.30;;;13.00;;
6013;SDS011;3035;49.928;8.410;2024-03-08T09:05:50;19.80;;;11.20;;
6013;SDS011;3035;49.928;8.410;2024-03-08T09:08:18;19.67;;;11.63;;
6013;SDS011;3035;49.928;8.410;2024-03-08T09:10:45;20.73;;;12.00;;
6013;SDS011;3035;49.928;8.410;2024-03-08T09:13:12;21.17;;;12.70;;
6013;SDS011;3035;49.928;8.410;2024-03-08T09:15:40;30.10;;;12.10;;
6013;SDS011;3035;49.928;8.410;2024-03-08T09:18:07;25.73;;;11.83;;
6013;SDS011;3035;49.928;8.410;2024-03-08T09:20:35;20.97;;;12.37;;
6013;SDS011;3035;49.928;8.410;2024-03-08T09:23:02;27.80;;;12.83;;
6013;SDS011;3035;49.928;8.410;2024-03-08T09:25:30;19.60;;;11.73;;
6013;SDS011;3035;49.928;8.410;2024-03-08T09:27:57;23.40;;;12.33;;
6013;SDS011;3035;49.928;8.410;2024-03-08T09:30:25;19.77;;;11.70;;
6013;SDS011;3035;49.928;8.410;2024-03-08T09:32:52;22.00;;;11.13;;
6013;SDS011;3035;49.928;8.410;2024-03-08T09:35:20;24.53;;;12.00;;
6013;SDS011;3035;49.928;8.410;2024-03-08T09:37:47;24.73;;;11.33;;
6013;SDS011;3035;49.928;8.410;2024-03-08T09:40:14;21.73;;;11.80;;
6013;SDS011;3035;49.928;8.410;2024-03-08T09:42:42;20.40;;;11.57;;
6013;SDS011;3035;49.928;8.410;2024-03-08T09:45:10;19.10;;;11.20;;
6013;SDS011;3035;49.928;8.410;2024-03-08T09:47:39;23.97;;;11.30;;
6013;SDS011;3035;49.928;8.410;2024-03-08T09:50:06;19.73;;;12.47;;
6013;SDS011;3035;49.928;8.410;2024-03-08T09:52:33;20.03;;;10.33;;
6013;SDS011;3035;49.928;8.410;2024-03-08T09:55:02;19.70;;;11.70;;
6013;SDS011;3035;49.928;8.410;2024-03-08T09:57:29;20.50;;;11.87;;
6013;SDS011;3035;49.928;8.410;2024-03-08T09:59:57;21.80;;;10.97;;
6013;SDS011;3035;49.928;8.410;2024-03-08T10:02:24;21.37;;;12.03;;
6013;SDS011;3035;49.928;8.410;2024-03-08T10:04:52;19.47;;;10.37;;
6013;SDS011;3035;49.928;8.410;2024-03-08T10:07:19;20.37;;;11.00;;
6013;SDS011;3035;49.928;8.410;2024-03-08T10:09:47;23.10;;;10.93;;
6013;SDS011;3035;49.928;8.410;2024-03-08T10:12:15;18.13;;;11.27;;
6013;SDS011;3035;49.928;8.410;2024-03-08T10:14:42;19.00;;;9.90;;
6013;SDS011;3035;49.928;8.410;2024-03-08T10:17:09;18.33;;;10.47;;
6013;SDS011;3035;49.928;8.410;2024-03-08T10:19:38;23.83;;;11.17;;
6013;SDS011;3035;49.928;8.410;2024-03-08T10:22:06;22.93;;;11.23;;
6013;SDS011;3035;49.928;8.410;2024-03-08T10:24:33;22.00;;;10.90;;
6013;SDS011;3035;49.928;8.410;2024-03-08T10:27:02;16.43;;;9.90;;
6013;SDS011;3035;49.928;8.410;2024-03-08T10:29:30;19.23;;;11.47;;
6013;SDS011;3035;49.928;8.410;2024-03-08T10:31:58;16.53;;;10.77;;
6013;SDS011;3035;49.928;8.410;2024-03-08T10:34:26;18.00;;;12.00;;
6013;SDS011;3035;49.928;8.410;2024-03-08T10:36:54;18.33;;;11.60;;
6013;SDS011;3035;49.928;8.410;2024-03-08T10:39:23;17.63;;;10.90;;
6013;SDS011;3035;49.928;8.410;2024-03-08T10:41:53;19.97;;;11.10;;
6013;SDS011;3035;49.928;8.410;2024-03-08T10:44:26;18.93;;;10.90;;
6013;SDS011;3035;49.928;8.410;2024-03-08T10:46:59;18.47;;;11.23;;
6013;SDS011;3035;49.928;8.410;2024-03-08T10:49:30;19.90;;;10.57;;
6013;SDS011;3035;49.928;8.410;2024-03-08T10:52:02;22.10;;;12.00;;
6013;SDS011;3035;49.928;8.410;2024-03-08T10:54:30;21.20;;;12.33;;
6013;SDS011;3035;49.928;8.410;2024-03-08T10:56:56;23.33;;;11.00;;
6013;SDS011;3035;49.928;8.410;2024-03-08T10:59:25;17.83;;;11.30;;
6013;SDS011;3035;49.928;8.410;2024-03-08T11:01:53;21.87;;;11.70;;
6013;SDS011;3035;49.928;8.410;2024-03-08T11:04:22;22.60;;;11.83;;
6013;SDS011;3035;49.928;8.410;2024-03-08T11:06:50;19.90;;;11.90;;
6013;SDS011;3035;49.928;8.410;2024-03-08T11:14:43;15.90;;;9.90;;
6013;SDS011;3035;49.928;8.410;2024-03-08T11:17:10;20.00;;;10.80;;
6013;SDS011;3035;49.928;8.410;2024-03-08T11:19:38;18.17;;;10.40;;
6013;SDS011;3035;49.928;8.410;2024-03-08T11:22:06;20.17;;;11.80;;
6013;SDS011;3035;49.928;8.410;2024-03-08T11:24:37;19.40;;;10.60;;
6013;SDS011;3035;49.928;8.410;2024-03-08T11:27:05;20.70;;;11.20;;
6013;SDS011;3035;49.928;8.410;2024-03-08T11:29:34;20.17;;;12.30;;
6013;SDS011;3035;49.928;8.410;2024-03-08T11:32:03;16.30;;;10.30;;
6013;SDS011;3035;49.928;8.410;2024-03-08T11:34:32;19.80;;;11.27;;
6013;SDS011;3035;49.928;8.410;2024-03-08T11:37:00;23.70;;;12.10;;
6013;SDS011;3035;49.928;8.410;2024-03-08T11:39:28;16.23;;;10.63;;
6013;SDS011;3035;49.928;8.410;2024-03-08T11:41:56;19.37;;;11.37;;
6013;SDS011;3035;49.928;8.410;2024-03-08T11:44:26;20.17;;;11.10;;
6013;SDS011;3035;49.928;8.410;2024-03-08T11:46:51;20.77;;;12.03;;
6013;SDS011;3035;49.928;8.410;2024-03-08T11:49:19;22.20;;;10.83;;
6013;SDS011;3035;49.928;8.410;2024-03-08T11:51:47;18.43;;;11.97;;
6013;SDS011;3035;49.928;8.410;2024-03-08T11:54:14;18.03;;;11.30;;
6013;SDS011;3035;49.928;8.410;2024-03-08T11:56:41;18.43;;;11.60;;
6013;SDS011;3035;49.928;8.410;2024-03-08T11:59:11;23.03;;;13.07;;
6013;SDS011;3035;49.928;8.410;2024-03-08T12:01:38;22.10;;;12.73;;
6013;SDS011;3035;49.928;8.410;2024-03-08T12:04:06;19.37;;;11.57;;
6013;SDS011;3035;49.928;8.410;2024-03-08T12:06:37;16.53;;;11.53;;
6013;SDS011;3035;49.928;8.410;2024-03-08T12:09:04;21.03;;;11.67;;
6013;SDS011;3035;49.928;8.410;2024-03-08T12:11:31;17.13;;;12.00;;
6013;SDS011;3035;49.928;8.410;2024-03-08T12:13:59;19.67;;;13.70;;
6013;SDS011;3035;49.928;8.410;2024-03-08T12:16:26;18.43;;;11.00;;
6013;SDS011;3035;49.928;8.410;2024-03-08T12:18:53;22.00;;;11.80;;
6013;SDS011;3035;49.928;8.410;2024-03-08T12:21:21;18.80;;;12.30;;
6013;SDS011;3035;49.928;8.410;2024-03-08T12:23:51;18.40;;;11.60;;
6013;SDS011;3035;49.928;8.410;2024-03-08T12:26:17;16.20;;;10.60;;
6013;SDS011;3035;49.928;8.410;2024-03-08T12:28:44;23.60;;;11.37;;
6013;SDS011;3035;49.928;8.410;2024-03-08T12:31:12;19.80;;;12.00;;
6013;SDS011;3035;49.928;8.410;2024-03-08T12:36:14;18.57;;;12.43;;
6013;SDS011;3035;49.928;8.410;2024-03-08T12:38:44;23.00;;;12.27;;
6013;SDS011;3035;49.928;8.410;2024-03-08T12:41:11;18.07;;;11.60;;
6013;SDS011;3035;49.928;8.410;2024-03-08T12:43:38;20.87;;;12.17;;
6013;SDS011;3035;49.928;8.410;2024-03-08T12:46:06;22.17;;;13.57;;
6013;SDS011;3035;49.928;8.410;2024-03-08T12:48:34;19.30;;;12.20;;
6013;SDS011;3035;49.928;8.410;2024-03-08T12:51:01;24.40;;;14.00;;
6013;SDS011;3035;49.928;8.410;2024-03-08T12:53:29;24.00;;;13.27;;
6013;SDS011;3035;49.928;8.410;2024-03-08T12:55:56;15.10;;;11.20;;
6013;SDS011;3035;49.928;8.410;2024-03-08T12:58:24;20.10;;;12.20;;
6013;SDS011;3035;49.928;8.410;2024-03-08T13:00:52;20.03;;;12.40;;
6013;SDS011;3035;49.928;8.410;2024-03-08T13:03:19;20.43;;;12.90;;
6013;SDS011;3035;49.928;8.410;2024-03-08T13:05:46;19.60;;;13.33;;
6013;SDS011;3035;49.928;8.410;2024-03-08T13:08:14;21.87;;;12.60;;
6013;SDS011;3035;49.928;8.410;2024-03-08T13:10:41;28.80;;;14.73;;
6013;SDS011;3035;49.928;8.410;2024-03-08T13:13:10;28.13;;;13.50;;
6013;SDS011;3035;49.928;8.410;2024-03-08T13:15:37;19.70;;;13.60;;
6013;SDS011;3035;49.928;8.410;2024-03-08T13:18:04;24.40;;;13.33;;
6013;SDS011;3035;49.928;8.410;2024-03-08T13:20:32;27.03;;;13.43;;
6013;SDS011;3035;49.928;8.410;2024-03-08T13:22:59;21.33;;;12.97;;
6013;SDS011;3035;49.928;8.410;2024-03-08T13:25:27;22.43;;;12.93;;
6013;SDS011;3035;49.928;8.410;2024-03-08T13:27:54;23.63;;;13.30;;
6013;SDS011;3035;49.928;8.410;2024-03-08T13:30:21;20.07;;;13.10;;
6013;SDS011;3035;49.928;8.410;2024-03-08T13:32:51;20.90;;;12.60;;
6013;SDS011;3035;49.928;8.410;2024-03-08T13:35:16;23.30;;;13.30;;
6013;SDS011;3035;49.928;8.410;2024-03-08T13:37:44;21.77;;;12.90;;
6013;SDS011;3035;49.928;8.410;2024-03-08T13:40:11;19.90;;;12.90;;
6013;SDS011;3035;49.928;8.410;2024-03-08T13:42:40;21.90;;;13.20;;
6013;SDS011;3035;49.928;8.410;2024-03-08T13:45:08;16.90;;;11.20;;
6013;SDS011;3035;49.928;8.410;2024-03-08T13:47:38;21.23;;;13.00;;
6013;SDS011;3035;49.928;8.410;2024-03-08T13:50:06;23.30;;;11.63;;
6013;SDS011;3035;49.928;8.410;2024-03-08T13:52:34;16.53;;;10.90;;
6013;SDS011;3035;49.928;8.410;2024-03-08T13:55:01;26.83;;;13.53;;
6013;SDS011;3035;49.928;8.410;2024-03-08T13:57:29;19.53;;;11.17;;
6013;SDS011;3035;49.928;8.410;2024-03-08T13:59:56;24.93;;;13.80;;
6013;SDS011;3035;49.928;8.410;2024-03-08T14:02:24;19.80;;;12.47;;
6013;SDS011;3035;49.928;8.410;2024-03-08T14:04:54;20.03;;;12.00;;
6013;SDS011;3035;49.928;8.410;2024-03-08T14:07:21;19.00;;;12.20;;
6013;SDS011;3035;49.928;8.410;2024-03-08T14:09:49;19.30;;;12.27;;
6013;SDS011;3035;49.928;8.410;2024-03-08T14:12:16;20.73;;;12.60;;
6013;SDS011;3035;49.928;8.410;2024-03-08T14:14:44;20.83;;;13.10;;
6013;SDS011;3035;49.928;8.410;2024-03-08T14:17:11;19.63;;;12.93;;
6013;SDS011;3035;49.928;8.410;2024-03-08T14:19:38;16.40;;;11.33;;
6013;SDS011;3035;49.928;8.410;2024-03-08T14:22:06;19.90;;;12.17;;
6013;SDS011;3035;49.928;8.410;2024-03-08T14:24:33;15.40;;;11.40;;
6013;SDS011;3035;49.928;8.410;2024-03-08T14:27:01;16.53;;;10.87;;
6013;SDS011;3035;49.928;8.410;2024-03-08T14:29:28;20.27;;;12.33;;
6013;SDS011;3035;49.928;8.410;2024-03-08T14:31:56;16.90;;;10.73;;
6013;SDS011;3035;49.928;8.410;2024-03-08T14:34:24;16.60;;;12.10;;
6013;SDS011;3035;49.928;8.410;2024-03-08T14:36:54;20.70;;;12.70;;
6013;SDS011;3035;49.928;8.410;2024-03-08T14:39:21;19.40;;;11.23;;
6013;SDS011;3035;49.928;8.410;2024-03-08T14:41:49;22.87;;;12.30;;
6013;SDS011;3035;49.928;8.410;2024-03-08T14:44:16;21.40;;;12.13;;
6013;SDS011;3035;49.928;8.410;2024-03-08T14:46:44;17.47;;;12.10;;
6013;SDS011;3035;49.928;8.410;2024-03-08T14:49:11;18.47;;;11.53;;
6013;SDS011;3035;49.928;8.410;2024-03-08T14:51:38;20.30;;;13.07;;
6013;SDS011;3035;49.928;8.410;2024-03-08T14:54:06;19.73;;;12.80;;
6013;SDS011;3035;49.928;8.410;2024-03-08T14:56:33;17.33;;;12.40;;
6013;SDS011;3035;49.928;8.410;2024-03-08T14:59:01;18.90;;;12.67;;